createdAt,value
2019-03-19T00:00:53.409Z,2.85
2019-03-19T00:03:41.700Z,3.30
2019-03-19T00:06:10.608Z,3.00
2019-03-19T00:08:39.528Z,2.83
2019-03-19T00:11:08.373Z,2.80
2019-03-19T00:13:37.286Z,2.90
2019-03-19T00:16:06.134Z,2.85
2019-03-19T00:18:35.116Z,2.90
2019-03-19T00:21:03.959Z,3.00
2019-03-19T00:23:32.859Z,2.70
2019-03-19T00:26:01.782Z,2.67
2019-03-19T00:28:30.879Z,2.70
2019-03-19T00:30:59.706Z,2.37
2019-03-19T00:33:28.518Z,2.58
2019-03-19T00:35:57.375Z,2.45
2019-03-19T00:38:26.210Z,2.50
2019-03-19T00:40:55.041Z,2.42
2019-03-19T00:43:23.896Z,2.45
2019-03-19T00:45:52.736Z,2.70
2019-03-19T00:48:21.650Z,2.77
2019-03-19T00:50:50.498Z,2.40
2019-03-19T00:53:19.333Z,2.25
2019-03-19T00:55:48.303Z,2.47
2019-03-19T00:58:17.205Z,2.80
2019-03-19T01:00:46.031Z,2.50
2019-03-19T01:03:14.926Z,2.50
2019-03-19T01:05:43.817Z,2.58
2019-03-19T01:08:12.729Z,2.35
2019-03-19T01:10:41.576Z,2.70
2019-03-19T01:13:22.408Z,2.20
2019-03-19T01:15:51.303Z,2.40
2019-03-19T01:18:20.159Z,2.30
2019-03-19T01:20:48.987Z,2.20
2019-03-19T01:23:17.869Z,1.92
2019-03-19T01:25:55.130Z,2.33
2019-03-19T01:28:17.265Z,2.47
2019-03-19T01:30:46.158Z,2.08
2019-03-19T01:33:14.992Z,2.30
2019-03-19T01:35:43.844Z,2.30
2019-03-19T01:38:12.693Z,2.30
2019-03-19T01:40:41.538Z,2.58
2019-03-19T01:50:10.374Z,2.40
2019-03-19T01:52:40.377Z,2.65
2019-03-19T01:55:10.388Z,2.50
2019-03-19T01:57:39.281Z,2.70
2019-03-19T02:00:09.748Z,2.40
2019-03-19T02:02:38.868Z,2.65
2019-03-19T02:05:07.787Z,2.80
2019-03-19T02:07:36.639Z,2.50
2019-03-19T02:10:07.095Z,2.45
2019-03-19T02:12:36.002Z,2.83
2019-03-19T02:15:06.023Z,2.60
2019-03-19T02:17:36.133Z,2.40
2019-03-19T02:20:06.818Z,2.40
2019-03-19T02:22:35.651Z,2.42
2019-03-19T02:25:06.023Z,2.80
2019-03-19T02:27:35.003Z,2.50
2019-03-19T02:30:05.299Z,2.70
2019-03-19T02:32:34.200Z,2.85
2019-03-19T02:35:05.338Z,2.67
2019-03-19T02:37:34.486Z,2.50
2019-03-19T02:40:04.884Z,2.62
2019-03-19T02:42:33.695Z,2.55
2019-03-19T02:45:02.553Z,2.62
2019-03-19T02:47:31.495Z,3.10
2019-03-19T02:50:00.421Z,3.08
2019-03-19T02:52:29.242Z,2.72
2019-03-19T02:54:58.087Z,2.87
2019-03-19T02:57:27.978Z,2.75
2019-03-19T02:59:56.906Z,2.75
2019-03-19T03:02:25.730Z,3.02
2019-03-19T03:04:54.648Z,2.75
2019-03-19T03:07:23.596Z,2.90
2019-03-19T03:09:52.553Z,3.35
2019-03-19T03:12:21.381Z,2.77
2019-03-19T03:14:50.262Z,2.37
2019-03-19T03:17:19.181Z,2.80
2019-03-19T03:19:48.074Z,2.87
2019-03-19T03:22:16.917Z,2.70
2019-03-19T03:24:45.812Z,2.90
2019-03-19T03:27:14.744Z,3.00
2019-03-19T03:29:43.623Z,3.00
2019-03-19T03:32:12.652Z,3.00
2019-03-19T03:34:41.591Z,3.15
2019-03-19T03:37:10.467Z,3.25
2019-03-19T03:39:39.379Z,3.30
2019-03-19T03:42:08.277Z,2.92
2019-03-19T03:44:37.188Z,3.10
2019-03-19T03:47:06.047Z,3.00
2019-03-19T03:49:34.877Z,3.12
2019-03-19T03:52:03.701Z,2.95
2019-03-19T03:54:32.527Z,3.00
2019-03-19T03:57:02.883Z,3.08
2019-03-19T03:59:31.992Z,2.95
2019-03-19T04:02:00.820Z,3.22
2019-03-19T04:04:29.722Z,3.00
2019-03-19T04:06:58.631Z,3.12
2019-03-19T04:09:27.466Z,3.12
2019-03-19T04:11:56.373Z,3.67
2019-03-19T04:14:46.601Z,3.30
2019-03-19T04:17:15.233Z,3.40
2019-03-19T04:19:44.038Z,3.52
2019-03-19T04:22:15.817Z,3.95
2019-03-19T04:24:43.498Z,3.87
2019-03-19T04:27:16.276Z,4.15
2019-03-19T04:29:42.865Z,3.67
2019-03-19T04:32:11.755Z,4.47
2019-03-19T04:34:40.668Z,4.03
2019-03-19T04:37:09.480Z,4.10
2019-03-19T04:39:38.323Z,3.77
2019-03-19T04:42:07.197Z,3.75
2019-03-19T04:44:36.295Z,3.52
2019-03-19T04:47:05.166Z,3.30
2019-03-19T04:49:34.073Z,3.60
2019-03-19T04:52:02.901Z,3.58
2019-03-19T04:54:31.732Z,3.75
2019-03-19T04:57:00.573Z,4.10
2019-03-19T04:59:29.410Z,4.10
2019-03-19T05:01:58.250Z,5.33
2019-03-19T05:04:27.667Z,4.40
2019-03-19T05:06:56.564Z,4.62
2019-03-19T05:09:25.390Z,3.30
2019-03-19T05:11:54.297Z,3.30
2019-03-19T05:14:23.151Z,3.77
2019-03-19T05:16:51.990Z,4.15
2019-03-19T05:19:20.881Z,3.72
2019-03-19T05:21:49.750Z,4.35
2019-03-19T05:24:18.585Z,5.00
2019-03-19T05:26:47.486Z,3.80
2019-03-19T05:29:16.392Z,4.30
2019-03-19T05:31:45.253Z,3.47
2019-03-19T05:34:14.090Z,4.03
2019-03-19T05:36:43.001Z,4.83
2019-03-19T05:39:11.872Z,5.40
2019-03-19T05:41:40.702Z,6.20
2019-03-19T05:44:09.667Z,8.40
2019-03-19T05:46:39.830Z,10.80
2019-03-19T05:49:08.714Z,9.20
2019-03-19T05:51:39.210Z,9.15
2019-03-19T05:54:09.691Z,6.60
2019-03-19T05:56:38.535Z,6.85
2019-03-19T05:59:07.448Z,5.90
2019-03-19T06:01:36.280Z,6.58
2019-03-19T06:04:05.180Z,6.62
2019-03-19T06:06:34.484Z,8.23
2019-03-19T06:09:03.686Z,6.95
2019-03-19T06:11:32.538Z,8.38
2019-03-19T06:14:01.383Z,8.25
2019-03-19T06:16:30.316Z,8.63
2019-03-19T06:18:59.230Z,8.60
2019-03-19T06:21:28.140Z,8.40
2019-03-19T06:23:57.021Z,10.00
2019-03-19T06:26:25.891Z,10.48
2019-03-19T06:28:54.789Z,7.10
2019-03-19T06:31:23.663Z,6.35
2019-03-19T06:33:52.564Z,5.30
2019-03-19T06:36:21.426Z,4.47
2019-03-19T06:38:50.290Z,3.98
2019-03-19T06:41:19.122Z,3.98
2019-03-19T06:43:47.941Z,3.95
2019-03-19T06:46:17.046Z,3.52
2019-03-19T06:48:45.980Z,4.55
2019-03-19T06:51:14.784Z,4.20
2019-03-19T06:53:43.622Z,3.95
2019-03-19T06:56:14.806Z,3.90
2019-03-19T06:58:43.012Z,3.33
2019-03-19T07:01:11.856Z,4.45
2019-03-19T07:03:40.684Z,4.50
2019-03-19T07:06:09.834Z,3.27
2019-03-19T07:08:38.666Z,3.08
2019-03-19T07:11:07.591Z,3.50
2019-03-19T07:13:36.446Z,4.22
2019-03-19T07:16:05.381Z,4.50
2019-03-19T07:18:34.294Z,3.30
2019-03-19T07:21:03.197Z,3.42
2019-03-19T07:23:32.032Z,4.40
2019-03-19T07:26:00.875Z,4.05
2019-03-19T07:28:29.898Z,5.70
2019-03-19T07:30:58.785Z,6.75
2019-03-19T07:33:27.621Z,3.58
2019-03-19T07:35:56.460Z,3.47
2019-03-19T07:38:25.284Z,5.05
2019-03-19T07:40:54.238Z,4.70
2019-03-19T07:43:23.079Z,4.97
2019-03-19T07:45:51.920Z,4.40
2019-03-19T07:48:20.750Z,4.83
2019-03-19T07:50:49.614Z,5.00
2019-03-19T07:53:18.515Z,5.17
2019-03-19T07:55:47.420Z,9.30
2019-03-19T07:58:16.274Z,8.93
2019-03-19T08:00:45.164Z,7.25
2019-03-19T08:03:16.415Z,6.05
2019-03-19T08:05:44.525Z,5.20
2019-03-19T08:08:13.354Z,4.92
2019-03-19T08:10:42.180Z,4.40
2019-03-19T08:13:11.012Z,3.90
2019-03-19T08:15:39.906Z,1.60
2019-03-19T08:18:08.741Z,1.20
2019-03-19T08:20:37.660Z,1.40
2019-03-19T08:23:08.968Z,1.42
2019-03-19T08:25:37.130Z,2.20
2019-03-19T08:28:05.969Z,1.70
2019-03-19T08:30:34.786Z,2.35
2019-03-19T08:33:03.765Z,1.90
2019-03-19T08:35:33.668Z,1.75
2019-03-19T08:38:02.485Z,1.90
2019-03-19T08:40:31.313Z,3.00
2019-03-19T08:43:00.230Z,2.25
2019-03-19T08:45:29.060Z,1.32
2019-03-19T08:47:57.988Z,1.50
2019-03-19T08:50:26.901Z,1.50
2019-03-19T08:52:55.874Z,1.62
2019-03-19T08:55:24.748Z,2.00
2019-03-19T08:57:53.724Z,1.42
2019-03-19T09:00:23.230Z,1.87
2019-03-19T09:02:52.220Z,1.40
2019-03-19T09:05:21.235Z,1.60
2019-03-19T09:07:50.082Z,1.90
2019-03-19T09:10:19.719Z,1.50
2019-03-19T09:12:49.241Z,1.60
2019-03-19T09:15:19.829Z,1.35
2019-03-19T09:17:48.745Z,1.45
2019-03-19T09:20:18.121Z,1.50
2019-03-19T09:22:47.026Z,1.65
2019-03-19T09:25:15.863Z,1.22
2019-03-19T09:27:44.778Z,1.70
2019-03-19T09:30:15.300Z,1.32
2019-03-19T09:32:44.191Z,1.57
2019-03-19T09:35:13.316Z,2.20
2019-03-19T09:37:44.898Z,1.55
2019-03-19T09:40:14.204Z,1.30
2019-03-19T09:42:43.034Z,1.20
2019-03-19T09:45:12.338Z,1.30
2019-03-19T09:47:41.176Z,1.42
2019-03-19T09:50:16.819Z,1.62
2019-03-19T09:52:45.671Z,1.12
2019-03-19T09:55:14.506Z,1.40
2019-03-19T09:57:43.336Z,1.75
2019-03-19T10:00:15.144Z,1.37
2019-03-19T10:02:44.068Z,1.10
2019-03-19T10:05:12.994Z,1.07
2019-03-19T10:07:42.019Z,1.60
2019-03-19T10:10:23.463Z,1.67
2019-03-19T10:12:52.357Z,2.10
2019-03-19T10:15:21.289Z,1.70
2019-03-19T10:17:50.130Z,1.50
2019-03-19T10:20:19.760Z,1.40
2019-03-19T10:22:48.915Z,1.30
2019-03-19T10:25:18.217Z,1.40
2019-03-19T10:27:47.206Z,1.30
2019-03-19T10:30:16.947Z,1.25
2019-03-19T10:32:45.977Z,1.35
2019-03-19T10:35:14.966Z,1.32
2019-03-19T10:37:43.960Z,1.40
2019-03-19T10:40:14.415Z,1.30
2019-03-19T10:42:43.262Z,1.42
2019-03-19T10:45:15.665Z,1.40
2019-03-19T10:47:44.571Z,1.22
2019-03-19T10:50:17.767Z,1.40
2019-03-19T10:52:46.716Z,3.02
2019-03-19T10:55:15.679Z,2.62
2019-03-19T13:53:00.490Z,1.72
2019-03-19T13:55:29.474Z,1.80
2019-03-19T13:57:58.379Z,1.80
2019-03-19T14:00:27.298Z,1.90
2019-03-19T14:02:59.013Z,1.85
2019-03-19T14:05:27.065Z,2.00
2019-03-19T14:07:56.010Z,1.70
2019-03-19T14:10:24.889Z,3.00
2019-03-19T14:12:54.058Z,1.90
2019-03-19T14:15:24.533Z,2.00
2019-03-19T14:17:53.345Z,1.80
2019-03-19T14:20:22.265Z,1.77
2019-03-19T14:22:51.854Z,1.50
2019-03-19T14:25:20.905Z,1.60
2019-03-19T14:27:49.874Z,1.60
2019-03-19T14:30:19.357Z,1.60
2019-03-19T14:32:48.377Z,1.65
2019-03-19T14:35:17.261Z,1.57
2019-03-19T14:37:46.104Z,1.50
2019-03-19T14:40:18.769Z,1.30
2019-03-19T14:42:47.745Z,1.50
2019-03-19T14:45:17.227Z,1.52
2019-03-19T14:47:46.282Z,1.55
2019-03-19T14:50:16.910Z,1.37
2019-03-19T14:52:45.742Z,1.22
2019-03-19T14:55:14.607Z,1.12
2019-03-19T14:57:43.648Z,1.40
2019-03-19T15:00:13.895Z,1.30
2019-03-19T15:02:42.975Z,1.22
2019-03-19T15:05:12.723Z,4.20
2019-03-19T15:07:41.822Z,1.92
2019-03-19T15:10:11.932Z,2.33
2019-03-19T15:12:52.661Z,2.02
2019-03-19T15:15:22.184Z,1.20
2019-03-19T15:17:51.155Z,1.00
2019-03-19T15:20:21.592Z,0.93
2019-03-19T15:22:50.822Z,1.20
2019-03-19T15:25:19.714Z,1.35
2019-03-19T15:27:50.020Z,1.27
2019-03-19T15:30:20.573Z,1.00
2019-03-19T15:32:49.402Z,1.20
2019-03-19T15:35:18.388Z,1.12
2019-03-19T15:37:47.200Z,1.10
2019-03-19T15:40:16.727Z,1.17
2019-03-19T15:42:46.273Z,1.00
2019-03-19T15:45:16.730Z,1.52
2019-03-19T15:48:05.311Z,4.65
2019-03-19T15:50:34.218Z,3.58
2019-03-19T15:53:03.180Z,4.70
2019-03-19T15:55:32.161Z,3.37
2019-03-19T15:58:01.156Z,4.40
2019-03-19T16:00:30.194Z,1.40
2019-03-19T16:02:59.123Z,1.50
2019-03-19T16:05:29.200Z,1.40
2019-03-19T16:07:58.214Z,1.85
2019-03-19T16:10:27.201Z,1.37
2019-03-19T16:12:56.096Z,1.20
2019-03-19T16:15:28.097Z,1.20
2019-03-19T16:18:00.444Z,1.50
2019-03-19T16:20:31.607Z,1.90
2019-03-19T16:23:00.445Z,3.67
2019-03-19T16:25:29.346Z,5.75
2019-03-19T16:27:58.186Z,6.03
2019-03-19T16:30:27.158Z,5.55
2019-03-19T16:32:57.059Z,4.40
2019-03-19T16:35:25.957Z,3.83
2019-03-19T16:37:54.959Z,2.42
2019-03-19T16:40:24.110Z,2.58
2019-03-19T16:42:52.952Z,2.00
2019-03-19T16:45:22.690Z,1.92
2019-03-19T16:47:51.627Z,18.67
2019-03-19T16:50:20.762Z,6.67
2019-03-19T16:52:49.716Z,2.55
2019-03-19T16:55:18.992Z,1.92
2019-03-19T16:57:48.356Z,2.20
2019-03-19T17:00:19.150Z,1.80
2019-03-19T17:02:49.272Z,1.80
2019-03-19T17:05:18.120Z,1.87
2019-03-19T17:07:47.032Z,2.22
2019-03-19T17:10:20.981Z,2.30
2019-03-19T17:12:49.966Z,2.60
2019-03-19T17:15:18.954Z,2.50
2019-03-19T17:17:47.942Z,3.20
2019-03-19T17:20:18.183Z,3.30
2019-03-19T17:22:48.124Z,3.30
2019-03-19T17:25:17.403Z,3.27
2019-03-19T17:27:46.552Z,3.10
2019-03-19T17:30:20.102Z,4.22
2019-03-19T17:32:49.019Z,2.90
2019-03-19T17:35:17.854Z,2.72
2019-03-19T17:37:46.846Z,2.67
2019-03-19T17:40:16.812Z,2.98
2019-03-19T17:42:56.066Z,2.95
2019-03-19T17:45:24.977Z,2.90
2019-03-19T17:47:53.808Z,3.17
2019-03-19T17:50:26.665Z,3.08
2019-03-19T17:52:55.820Z,3.77
2019-03-19T17:55:24.808Z,3.83
2019-03-19T17:57:53.724Z,4.60
2019-03-19T18:00:24.194Z,4.10
2019-03-19T18:02:53.120Z,4.67
2019-03-19T18:05:22.042Z,5.30
2019-03-19T18:07:50.876Z,5.65
2019-03-19T18:10:20.800Z,4.80
2019-03-19T18:12:49.744Z,4.60
2019-03-19T18:15:19.484Z,4.05
2019-03-19T18:17:48.514Z,3.92
2019-03-19T18:20:17.621Z,5.00
2019-03-19T18:22:46.507Z,11.90
2019-03-19T18:25:15.751Z,7.70
2019-03-19T18:27:44.712Z,3.55
2019-03-19T18:30:15.201Z,3.80
2019-03-19T18:32:44.052Z,4.15
2019-03-19T18:35:13.054Z,4.22
2019-03-19T18:37:41.979Z,4.05
2019-03-19T18:40:12.625Z,7.62
2019-03-19T18:42:41.539Z,5.03
2019-03-19T18:45:11.567Z,11.28
2019-03-19T18:47:40.669Z,9.33
2019-03-19T18:50:10.793Z,8.63
2019-03-19T18:52:39.675Z,8.43
2019-03-19T18:55:08.890Z,7.42
2019-03-19T18:57:37.866Z,6.30
2019-03-19T19:00:17.569Z,5.37
2019-03-19T19:02:50.103Z,5.33
2019-03-19T19:05:21.477Z,4.58
2019-03-19T19:07:50.402Z,4.95
2019-03-19T19:10:21.045Z,4.40
2019-03-19T19:12:50.184Z,4.55
2019-03-19T19:15:24.129Z,4.87
2019-03-19T19:17:53.140Z,5.50
2019-03-19T19:20:22.055Z,5.87
2019-03-19T19:22:51.146Z,6.62
2019-03-19T19:25:26.119Z,6.45
2019-03-19T19:27:54.990Z,5.70
2019-03-19T19:30:25.024Z,6.75
2019-03-19T19:33:01.410Z,6.83
2019-03-19T19:35:24.480Z,19.07
2019-03-19T19:37:53.386Z,19.85
2019-03-19T19:40:22.361Z,15.40
2019-03-19T19:42:51.268Z,11.20
2019-03-19T19:45:20.292Z,7.37
2019-03-19T19:47:49.212Z,7.15
2019-03-19T19:50:18.695Z,7.05
2019-03-19T19:52:47.669Z,6.87
2019-03-19T19:55:16.707Z,5.78
2019-03-19T19:57:45.739Z,4.90
2019-03-19T20:00:15.409Z,7.47
2019-03-19T20:02:44.453Z,5.22
2019-03-19T20:05:13.278Z,4.55
2019-03-19T20:07:42.215Z,3.90
2019-03-19T20:10:12.290Z,4.10
2019-03-19T20:12:41.188Z,5.83
2019-03-19T20:15:10.892Z,3.80
2019-03-19T20:17:40.695Z,3.80
2019-03-19T20:20:22.467Z,3.22
2019-03-19T20:22:51.396Z,3.25
2019-03-19T20:25:20.224Z,4.08
2019-03-19T20:27:49.069Z,8.15
2019-03-19T20:30:27.115Z,4.58
2019-03-19T20:32:56.134Z,3.40
2019-03-19T20:35:25.274Z,3.70
2019-03-19T20:38:06.230Z,3.62
2019-03-19T20:40:35.128Z,3.40
2019-03-19T20:43:04.041Z,4.10
2019-03-19T20:45:33.044Z,3.62
2019-03-19T20:48:02.099Z,3.77
2019-03-19T20:50:31.896Z,3.50
2019-03-19T20:53:00.801Z,3.45
2019-03-19T20:55:29.700Z,3.12
2019-03-19T20:57:58.619Z,3.20
2019-03-19T21:00:27.519Z,3.20
2019-03-19T21:02:56.405Z,3.47
2019-03-19T21:05:25.386Z,3.80
2019-03-19T21:07:54.364Z,3.60
2019-03-19T21:10:23.862Z,3.83
2019-03-19T21:12:52.847Z,2.92
2019-03-19T21:15:29.594Z,10.98
2019-03-19T21:17:58.503Z,4.55
2019-03-19T21:20:27.441Z,3.30
2019-03-19T21:22:56.326Z,3.10
2019-03-19T21:25:25.158Z,3.30
2019-03-19T21:27:54.079Z,4.55
2019-03-19T21:30:23.345Z,4.97
2019-03-19T21:32:52.205Z,3.27
2019-03-19T21:35:22.813Z,3.42
2019-03-19T21:37:51.732Z,3.20
2019-03-19T21:40:20.707Z,3.12
2019-03-19T21:42:49.755Z,3.58
2019-03-19T21:45:21.974Z,3.90
2019-03-19T21:47:50.888Z,4.53
2019-03-19T21:50:20.577Z,3.72
2019-03-19T21:52:49.501Z,3.35
2019-03-19T21:55:18.627Z,3.33
2019-03-19T21:57:47.611Z,3.10
2019-03-19T22:00:17.172Z,3.37
2019-03-19T22:02:46.190Z,4.72
2019-03-19T22:05:15.252Z,7.87
2019-03-19T22:07:44.252Z,6.67
2019-03-19T22:10:13.861Z,4.75
2019-03-19T22:12:43.787Z,4.15
2019-03-19T22:15:25.785Z,4.22
2019-03-19T22:17:54.876Z,3.80
2019-03-19T22:20:23.962Z,4.25
2019-03-19T22:22:52.894Z,3.95
2019-03-19T22:25:21.999Z,7.15
2019-03-19T22:27:50.909Z,4.50
2019-03-19T22:30:20.420Z,4.65
2019-03-19T22:32:49.474Z,6.03
2019-03-19T22:35:18.368Z,5.90
2019-03-19T22:37:47.287Z,6.70
2019-03-19T22:40:17.733Z,4.53
2019-03-19T22:42:46.719Z,3.98
2019-03-19T22:45:18.511Z,3.20
2019-03-19T22:47:51.931Z,3.67
2019-03-19T22:50:25.647Z,4.17
2019-03-19T22:52:57.554Z,3.95
2019-03-19T22:55:29.404Z,3.90
2019-03-19T22:57:57.024Z,4.15
2019-03-19T23:00:39.613Z,3.85
2019-03-19T23:03:10.235Z,4.67
2019-03-19T23:05:39.049Z,5.40
2019-03-19T23:08:07.978Z,4.62
2019-03-19T23:10:56.285Z,4.80
2019-03-19T23:13:25.145Z,4.37
2019-03-19T23:15:54.122Z,4.45
2019-03-19T23:18:23.036Z,4.12
2019-03-19T23:20:51.881Z,4.17
2019-03-19T23:23:20.709Z,4.67
2019-03-19T23:25:49.544Z,4.75
2019-03-19T23:28:18.512Z,4.55
2019-03-19T23:30:47.413Z,5.10
2019-03-19T23:33:16.301Z,5.00
2019-03-19T23:35:45.288Z,4.87
2019-03-19T23:38:14.271Z,4.87
2019-03-19T23:40:43.194Z,4.50
2019-03-19T23:43:12.126Z,4.50
2019-03-19T23:45:41.077Z,5.12
2019-03-19T23:48:10.041Z,4.85
2019-03-19T23:50:38.927Z,4.67
2019-03-19T23:53:07.821Z,4.60
2019-03-19T23:55:36.698Z,4.50
2019-03-19T23:58:05.629Z,5.20
